createdAt,value
2022-12-15T00:00:13.129Z,0.10
2022-12-15T00:02:58.842Z,0.10
2022-12-15T00:05:44.569Z,0.10
2022-12-15T00:08:35.781Z,0.10
2022-12-15T00:11:22.231Z,0.10
2022-12-15T00:14:08.198Z,0.10
2022-12-15T00:16:55.399Z,0.10
2022-12-15T00:19:41.121Z,0.00
2022-12-15T00:22:26.936Z,0.00
2022-12-15T00:25:12.868Z,0.00
2022-12-15T00:27:58.656Z,0.00
2022-12-15T00:30:45.002Z,0.00
2022-12-15T00:33:37.557Z,0.00
2022-12-15T00:36:23.583Z,-0.10
2022-12-15T00:38:52.188Z,-0.10
2022-12-15T00:41:20.934Z,-0.10
2022-12-15T00:43:49.816Z,-0.10
2022-12-15T00:46:35.387Z,-0.10
2022-12-15T00:49:25.426Z,-0.10
2022-12-15T00:52:11.139Z,-0.10
2022-12-15T00:54:56.961Z,-0.10
2022-12-15T00:57:42.648Z,-0.10
2022-12-15T01:00:29.778Z,-0.10
2022-12-15T01:03:15.620Z,-0.10
2022-12-15T01:06:03.252Z,-0.10
2022-12-15T01:08:49.094Z,-0.10
2022-12-15T01:11:34.976Z,-0.10
2022-12-15T01:14:21.340Z,-0.10
2022-12-15T01:17:07.307Z,-0.10
2022-12-15T01:19:53.641Z,-0.10
2022-12-15T01:22:23.768Z,-0.10
2022-12-15T01:24:52.770Z,-0.10
2022-12-15T01:27:21.398Z,-0.20
2022-12-15T01:29:49.639Z,-0.20
2022-12-15T01:32:17.840Z,-0.20
2022-12-15T01:34:46.050Z,-0.20
2022-12-15T01:37:14.386Z,-0.20
2022-12-15T01:40:01.580Z,-0.20
2022-12-15T01:42:30.099Z,-0.20
2022-12-15T01:45:31.852Z,-0.30
2022-12-15T01:48:04.422Z,-0.30
2022-12-15T01:50:35.550Z,-0.30
2022-12-15T01:53:04.141Z,-0.30
2022-12-15T01:55:33.976Z,-0.30
2022-12-15T01:58:04.741Z,-0.40
2022-12-15T02:03:36.865Z,-0.40
2022-12-15T02:06:05.987Z,-0.40
2022-12-15T02:08:34.641Z,-0.40
2022-12-15T02:11:33.957Z,-0.40
2022-12-15T02:14:04.679Z,-0.40
2022-12-15T02:16:48.667Z,-0.40
2022-12-15T02:19:53.673Z,-0.40
2022-12-15T02:22:33.811Z,-0.40
2022-12-15T02:25:19.607Z,-0.40
2022-12-15T02:27:59.250Z,-0.40
2022-12-15T02:30:40.488Z,-0.40
2022-12-15T02:33:14.995Z,-0.50
2022-12-15T02:36:05.606Z,-0.50
2022-12-15T02:38:36.106Z,-0.50
2022-12-15T02:41:06.219Z,-0.50
2022-12-15T02:43:38.941Z,-0.50
2022-12-15T02:46:22.623Z,-0.50
2022-12-15T02:49:02.147Z,-0.50
2022-12-15T02:51:45.430Z,-0.50
2022-12-15T02:54:47.232Z,-0.50
2022-12-15T02:57:20.907Z,-0.50
2022-12-15T02:59:55.735Z,-0.50
2022-12-15T03:02:28.988Z,-0.50
2022-12-15T03:04:57.857Z,-0.50
2022-12-15T03:07:27.880Z,-0.50
2022-12-15T03:09:57.176Z,-0.50
2022-12-15T03:12:28.101Z,-0.50
2022-12-15T03:14:56.806Z,-0.50
2022-12-15T03:17:26.522Z,-0.50
2022-12-15T03:19:54.983Z,-0.50
2022-12-15T03:22:23.266Z,-0.50
2022-12-15T03:24:51.459Z,-0.50
2022-12-15T03:27:19.997Z,-0.40
2022-12-15T03:29:48.338Z,-0.40
2022-12-15T03:32:16.720Z,-0.40
2022-12-15T03:34:46.368Z,-0.40
2022-12-15T03:37:14.864Z,-0.30
2022-12-15T03:39:43.148Z,-0.30
2022-12-15T03:42:11.633Z,-0.30
2022-12-15T03:44:40.145Z,-0.30
2022-12-15T03:47:08.452Z,-0.30
2022-12-15T03:49:37.128Z,-0.30
2022-12-15T03:52:06.911Z,-0.30
2022-12-15T03:54:35.173Z,-0.30
2022-12-15T03:57:03.394Z,-0.30
2022-12-15T03:59:31.928Z,-0.30
2022-12-15T04:02:00.610Z,-0.30
2022-12-15T04:04:29.321Z,-0.40
2022-12-15T04:06:57.551Z,-0.40
2022-12-15T04:09:27.143Z,-0.40
2022-12-15T04:11:55.355Z,-0.40
2022-12-15T04:14:23.671Z,-0.40
2022-12-15T04:16:51.883Z,-0.40
2022-12-15T04:19:37.384Z,-0.40
2022-12-15T04:22:05.755Z,-0.40
2022-12-15T04:24:52.940Z,-0.40
2022-12-15T04:27:38.730Z,-0.40
2022-12-15T04:30:25.832Z,-0.40
2022-12-15T04:33:12.532Z,-0.40
2022-12-15T04:35:57.909Z,-0.40
2022-12-15T04:38:50.551Z,-0.40
2022-12-15T04:41:39.982Z,-0.50
2022-12-15T04:44:26.573Z,-0.50
2022-12-15T04:47:12.318Z,-0.50
2022-12-15T04:49:58.163Z,-0.50
2022-12-15T04:52:43.802Z,-0.50
2022-12-15T04:55:29.369Z,-0.50
2022-12-15T04:58:16.525Z,-0.50
2022-12-15T05:01:02.364Z,-0.50
2022-12-15T05:03:48.365Z,-0.50
2022-12-15T05:06:33.907Z,-0.50
2022-12-15T05:09:19.923Z,-0.50
2022-12-15T05:12:05.346Z,-0.50
2022-12-15T05:14:52.644Z,-0.50
2022-12-15T05:17:41.618Z,-0.50
2022-12-15T05:20:28.547Z,-0.50
2022-12-15T05:23:15.171Z,-0.50
2022-12-15T05:26:01.344Z,-0.50
2022-12-15T05:28:47.434Z,-0.50
2022-12-15T05:31:34.838Z,-0.50
2022-12-15T05:34:05.790Z,-0.60
2022-12-15T05:36:34.251Z,-0.60
2022-12-15T05:39:02.749Z,-0.60
2022-12-15T05:41:31.015Z,-0.60
2022-12-15T05:43:59.440Z,-0.60
2022-12-15T05:46:29.108Z,-0.60
2022-12-15T05:48:57.400Z,-0.60
2022-12-15T05:51:25.679Z,-0.60
2022-12-15T05:53:53.925Z,-0.60
2022-12-15T05:56:22.152Z,-0.60
2022-12-15T05:58:50.423Z,-0.60
2022-12-15T06:01:20.496Z,-0.60
2022-12-15T06:03:50.374Z,-0.60
2022-12-15T06:06:19.507Z,-0.60
2022-12-15T06:08:47.766Z,-0.50
2022-12-15T06:11:20.138Z,-0.50
2022-12-15T06:13:48.402Z,-0.50
2022-12-15T06:16:19.178Z,-0.50
2022-12-15T06:18:51.072Z,-0.50
2022-12-15T06:21:21.363Z,-0.50
2022-12-15T06:23:49.784Z,-0.50
2022-12-15T06:26:20.701Z,-0.50
2022-12-15T06:28:49.464Z,-0.50
2022-12-15T06:31:22.715Z,-0.50
2022-12-15T06:33:59.177Z,-0.50
2022-12-15T06:36:30.805Z,-0.50
2022-12-15T06:39:00.497Z,-0.50
2022-12-15T06:41:30.900Z,-0.50
2022-12-15T06:44:00.433Z,-0.50
2022-12-15T06:46:32.009Z,-0.50
2022-12-15T06:49:02.540Z,-0.50
2022-12-15T06:51:30.848Z,-0.50
2022-12-15T06:54:00.008Z,-0.50
2022-12-15T06:56:34.007Z,-0.50
2022-12-15T06:59:04.448Z,-0.50
2022-12-15T07:01:33.766Z,-0.50
2022-12-15T07:04:05.651Z,-0.50
2022-12-15T07:06:37.375Z,-0.50
2022-12-15T07:09:08.418Z,-0.50
2022-12-15T07:11:37.504Z,-0.50
2022-12-15T07:14:06.101Z,-0.60
2022-12-15T07:16:34.655Z,-0.50
2022-12-15T07:19:04.503Z,-0.60
2022-12-15T07:21:33.481Z,-0.50
2022-12-15T07:24:02.774Z,-0.50
2022-12-15T07:26:31.474Z,-0.50
2022-12-15T07:29:00.920Z,-0.50
2022-12-15T07:31:29.496Z,-0.50
2022-12-15T07:33:58.869Z,-0.50
2022-12-15T07:36:28.713Z,-0.50
2022-12-15T07:39:00.834Z,-0.50
2022-12-15T07:41:30.091Z,-0.40
2022-12-15T07:43:58.957Z,-0.40
2022-12-15T07:46:29.158Z,-0.40
2022-12-15T07:48:57.526Z,-0.40
2022-12-15T07:51:26.100Z,-0.40
2022-12-15T07:53:55.805Z,-0.30
2022-12-15T07:56:24.275Z,-0.30
2022-12-15T07:58:53.050Z,-0.20
2022-12-15T08:01:21.500Z,-0.20
2022-12-15T08:03:50.234Z,-0.10
2022-12-15T08:06:18.542Z,-0.10
2022-12-15T08:08:50.583Z,0.00
2022-12-15T08:11:22.266Z,0.10
2022-12-15T08:14:10.469Z,0.20
2022-12-15T08:16:42.482Z,0.30
2022-12-15T08:19:13.940Z,0.30
2022-12-15T08:21:43.650Z,0.40
2022-12-15T08:24:14.076Z,0.40
2022-12-15T08:26:45.013Z,0.30
2022-12-15T08:29:49.618Z,0.30
2022-12-15T08:32:07.766Z,0.30
2022-12-15T08:34:36.835Z,0.30
2022-12-15T08:37:05.238Z,0.40
2022-12-15T08:39:33.462Z,0.40
2022-12-15T08:42:03.868Z,0.50
2022-12-15T08:44:33.535Z,0.50
2022-12-15T08:47:01.785Z,0.60
2022-12-15T08:49:30.522Z,0.60
2022-12-15T08:51:59.010Z,0.70
2022-12-15T08:54:27.459Z,0.70
2022-12-15T08:56:56.037Z,0.70
2022-12-15T08:59:26.100Z,0.70
2022-12-15T09:01:54.696Z,0.70
2022-12-15T09:04:23.192Z,0.80
2022-12-15T09:06:51.747Z,0.80
2022-12-15T09:09:20.528Z,0.90
2022-12-15T09:11:49.497Z,1.00
2022-12-15T09:14:22.836Z,1.10
2022-12-15T09:16:57.067Z,1.20
2022-12-15T09:19:25.678Z,1.30
2022-12-15T09:21:54.020Z,1.40
2022-12-15T09:24:33.939Z,1.50
2022-12-15T09:27:04.039Z,1.50
2022-12-15T09:29:32.618Z,1.60
2022-12-15T09:32:02.348Z,1.70
2022-12-15T09:34:30.654Z,1.80
2022-12-15T09:36:59.257Z,1.90
2022-12-15T09:39:27.710Z,1.90
2022-12-15T09:41:59.791Z,2.00
2022-12-15T09:44:30.138Z,1.90
2022-12-15T09:47:19.844Z,1.80
2022-12-15T09:49:58.597Z,1.80
2022-12-15T09:52:29.164Z,1.80
2022-12-15T09:54:59.156Z,1.80
2022-12-15T09:57:37.341Z,1.80
2022-12-15T10:00:17.127Z,1.80
2022-12-15T10:03:11.357Z,1.90
2022-12-15T10:06:14.715Z,2.00
2022-12-15T10:08:40.850Z,2.10
2022-12-15T10:11:19.761Z,2.30
2022-12-15T10:13:54.795Z,2.40
2022-12-15T10:16:29.241Z,2.50
2022-12-15T10:19:15.503Z,2.70
2022-12-15T10:21:44.025Z,2.80
2022-12-15T10:24:44.351Z,2.90
2022-12-15T10:27:21.923Z,3.00
2022-12-15T10:30:00.429Z,3.00
2022-12-15T10:32:42.773Z,2.90
2022-12-15T10:35:18.193Z,2.80
2022-12-15T10:37:47.835Z,2.80
2022-12-15T10:40:22.294Z,2.70
2022-12-15T10:42:51.968Z,2.70
2022-12-15T10:45:35.698Z,2.60
2022-12-15T10:48:06.666Z,2.50
2022-12-15T10:50:37.012Z,2.40
2022-12-15T10:53:10.021Z,2.40
2022-12-15T10:55:41.166Z,2.40
2022-12-15T10:58:17.842Z,2.40
2022-12-15T11:00:47.025Z,2.40
2022-12-15T11:03:24.328Z,2.40
2022-12-15T11:05:55.660Z,2.30
2022-12-15T11:08:25.817Z,2.30
2022-12-15T11:11:13.944Z,2.20
2022-12-15T11:13:43.741Z,2.10
2022-12-15T11:16:17.837Z,2.00
2022-12-15T11:18:50.208Z,2.00
2022-12-15T11:21:24.087Z,2.00
2022-12-15T11:24:00.730Z,2.00
2022-12-15T11:26:49.228Z,2.00
2022-12-15T11:29:28.689Z,2.10
2022-12-15T11:32:03.110Z,2.10
2022-12-15T11:34:38.646Z,2.20
2022-12-15T11:37:24.091Z,2.30
2022-12-15T11:40:07.555Z,2.40
2022-12-15T11:42:46.790Z,2.40
2022-12-15T11:45:23.767Z,2.40
2022-12-15T11:47:58.055Z,2.40
2022-12-15T11:50:32.748Z,2.50
2022-12-15T11:53:39.871Z,2.60
2022-12-15T11:56:18.144Z,2.70
2022-12-15T11:59:10.598Z,2.80
2022-12-15T12:01:56.993Z,3.00
2022-12-15T12:04:35.154Z,3.20
2022-12-15T12:07:11.705Z,3.40
2022-12-15T12:09:48.571Z,3.70
2022-12-15T12:12:27.090Z,3.90
2022-12-15T12:15:09.060Z,4.10
2022-12-15T12:17:44.776Z,4.20
2022-12-15T12:20:18.653Z,4.30
2022-12-15T12:22:56.411Z,4.30
2022-12-15T12:25:27.753Z,4.40
2022-12-15T12:28:02.186Z,4.50
2022-12-15T12:30:39.211Z,4.50
2022-12-15T12:33:14.141Z,4.50
2022-12-15T12:35:48.710Z,4.40
2022-12-15T12:38:20.255Z,4.20
2022-12-15T12:40:59.606Z,4.10
2022-12-15T12:43:34.292Z,3.90
2022-12-15T12:46:10.236Z,3.70
2022-12-15T12:48:42.486Z,3.60
2022-12-15T12:51:19.001Z,3.50
2022-12-15T12:53:48.638Z,3.40
2022-12-15T12:56:38.810Z,3.40
2022-12-15T12:59:39.554Z,3.40
2022-12-15T13:02:45.252Z,3.40
2022-12-15T13:05:27.387Z,3.30
2022-12-15T13:07:57.914Z,3.20
2022-12-15T13:10:26.961Z,3.20
2022-12-15T13:12:56.917Z,3.20
2022-12-15T13:15:38.226Z,3.20
2022-12-15T13:18:14.673Z,3.20
2022-12-15T13:20:44.727Z,3.20
2022-12-15T13:23:44.172Z,3.10
2022-12-15T13:26:16.136Z,3.00
2022-12-15T13:28:54.355Z,2.90
2022-12-15T13:31:39.698Z,2.80
2022-12-15T13:34:17.914Z,2.70
2022-12-15T13:37:01.907Z,2.60
2022-12-15T13:39:55.099Z,2.60
2022-12-15T13:42:56.320Z,2.50
2022-12-15T13:45:35.951Z,2.50
2022-12-15T13:48:16.850Z,2.50
2022-12-15T13:50:53.818Z,2.50
2022-12-15T13:53:25.909Z,2.50
2022-12-15T13:56:04.295Z,2.40
2022-12-15T13:58:40.368Z,2.40
2022-12-15T14:04:15.815Z,2.30
2022-12-15T14:06:50.957Z,2.20
2022-12-15T14:09:23.444Z,2.10
2022-12-15T14:11:53.910Z,2.00
2022-12-15T14:14:26.455Z,2.00
2022-12-15T14:17:01.391Z,2.00
2022-12-15T14:19:40.423Z,1.90
2022-12-15T14:22:27.491Z,1.90
2022-12-15T14:25:03.548Z,1.90
2022-12-15T14:27:34.340Z,1.90
2022-12-15T14:30:14.920Z,1.80
2022-12-15T14:32:45.783Z,1.80
2022-12-15T14:35:19.872Z,1.80
2022-12-15T14:37:48.505Z,1.70
2022-12-15T14:40:21.362Z,1.70
2022-12-15T14:42:54.825Z,1.70
2022-12-15T14:45:26.976Z,1.60
2022-12-15T14:48:30.570Z,1.60
2022-12-15T14:50:51.127Z,1.50
2022-12-15T14:53:22.244Z,1.50
2022-12-15T14:58:42.090Z,1.50
2022-12-15T15:01:25.111Z,1.50
2022-12-15T15:03:05.769Z,2.30
2022-12-15T15:04:01.784Z,1.50
2022-12-15T15:06:37.098Z,1.40
2022-12-15T15:09:17.967Z,1.40
2022-12-15T15:11:48.087Z,1.30
2022-12-15T15:14:21.715Z,1.30
2022-12-15T15:17:01.644Z,1.20
2022-12-15T15:19:32.390Z,1.20
2022-12-15T15:22:03.528Z,1.20
2022-12-15T15:24:35.661Z,1.20
2022-12-15T15:27:35.039Z,1.10
2022-12-15T15:30:20.684Z,1.10
2022-12-15T15:33:07.243Z,1.10
2022-12-15T15:35:35.673Z,1.10
2022-12-15T15:38:09.742Z,1.10
2022-12-15T15:40:40.748Z,1.00
2022-12-15T15:43:12.728Z,1.00
2022-12-15T15:45:42.326Z,1.00
2022-12-15T15:48:13.777Z,1.00
2022-12-15T15:50:42.172Z,1.00
2022-12-15T15:53:17.801Z,1.00
2022-12-15T15:55:47.163Z,1.00
2022-12-15T15:58:15.685Z,0.90
2022-12-15T16:00:44.053Z,0.90
2022-12-15T16:03:12.674Z,0.80
2022-12-15T16:05:42.479Z,0.80
2022-12-15T16:08:17.052Z,0.70
2022-12-15T16:10:48.156Z,0.70
2022-12-15T16:13:25.641Z,0.60
2022-12-15T16:15:54.980Z,0.60
2022-12-15T16:18:23.532Z,0.60
2022-12-15T16:20:53.747Z,0.50
2022-12-15T16:23:27.390Z,0.50
2022-12-15T16:25:57.410Z,0.50
2022-12-15T16:28:28.064Z,0.40
2022-12-15T16:30:58.409Z,0.40
2022-12-15T16:33:27.340Z,0.40
2022-12-15T16:35:55.714Z,0.30
2022-12-15T16:38:28.138Z,0.30
2022-12-15T16:40:57.629Z,0.30
2022-12-15T16:43:31.472Z,0.30
2022-12-15T16:46:04.873Z,0.30
2022-12-15T16:48:33.904Z,0.30
2022-12-15T16:51:02.613Z,0.20
2022-12-15T16:53:34.430Z,0.20
2022-12-15T16:56:05.191Z,0.20
2022-12-15T16:58:36.435Z,0.20
2022-12-15T17:01:05.044Z,0.20
2022-12-15T17:03:33.590Z,0.20
2022-12-15T17:06:05.060Z,0.20
2022-12-15T17:08:40.052Z,0.10
2022-12-15T17:11:13.047Z,0.20
2022-12-15T17:13:45.562Z,0.10
2022-12-15T17:16:16.563Z,0.10
2022-12-15T17:18:44.983Z,0.00
2022-12-15T17:21:18.712Z,0.00
2022-12-15T17:23:51.097Z,-0.10
2022-12-15T17:26:29.509Z,-0.10
2022-12-15T17:29:02.366Z,-0.10
2022-12-15T17:31:35.717Z,-0.10
2022-12-15T17:34:23.925Z,-0.20
2022-12-15T17:36:52.654Z,-0.20
2022-12-15T17:39:23.659Z,-0.20
2022-12-15T17:42:07.378Z,-0.30
2022-12-15T17:44:38.576Z,-0.30
2022-12-15T17:47:09.397Z,-0.30
2022-12-15T17:49:39.149Z,-0.30
2022-12-15T17:52:17.888Z,-0.40
2022-12-15T17:54:47.555Z,-0.50
2022-12-15T17:57:15.909Z,-0.50
2022-12-15T17:59:44.612Z,-0.60
2022-12-15T18:02:14.385Z,-0.60
2022-12-15T18:04:43.726Z,-0.60
2022-12-15T18:07:20.488Z,-0.60
2022-12-15T18:09:51.119Z,-0.60
2022-12-15T18:12:22.460Z,-0.70
2022-12-15T18:14:50.977Z,-0.70
2022-12-15T18:17:19.273Z,-0.80
2022-12-15T18:19:47.811Z,-0.80
2022-12-15T18:22:20.380Z,-0.80
2022-12-15T18:24:50.730Z,-0.80
2022-12-15T18:27:24.340Z,-0.90
2022-12-15T18:29:52.955Z,-0.90
2022-12-15T18:32:23.288Z,-0.90
2022-12-15T18:34:51.645Z,-0.90
2022-12-15T18:37:22.834Z,-0.90
2022-12-15T18:39:52.783Z,-0.90
2022-12-15T18:42:23.332Z,-0.80
2022-12-15T18:44:53.526Z,-0.80
2022-12-15T18:47:23.946Z,-0.80
2022-12-15T18:49:52.375Z,-0.80
2022-12-15T18:52:23.135Z,-0.80
2022-12-15T18:54:54.281Z,-0.80
2022-12-15T18:57:28.163Z,-0.80
2022-12-15T18:59:58.977Z,-0.80
2022-12-15T19:02:27.234Z,-0.80
2022-12-15T19:04:55.802Z,-0.70
2022-12-15T19:07:24.098Z,-0.70
2022-12-15T19:09:54.573Z,-0.70
2022-12-15T19:12:23.901Z,-0.70
2022-12-15T19:14:55.110Z,-0.70
2022-12-15T19:17:42.433Z,-0.80
2022-12-15T19:20:49.681Z,-0.80
2022-12-15T19:23:18.934Z,-0.80
2022-12-15T19:25:50.397Z,-0.80
2022-12-15T19:28:21.141Z,-0.80
2022-12-15T19:30:50.056Z,-0.80
2022-12-15T19:33:19.296Z,-0.80
2022-12-15T19:35:51.777Z,-0.80
2022-12-15T19:38:24.275Z,-0.70
2022-12-15T19:40:55.099Z,-0.70
2022-12-15T19:43:24.656Z,-0.70
2022-12-15T19:45:53.880Z,-0.70
2022-12-15T19:48:23.991Z,-0.60
2022-12-15T19:50:54.924Z,-0.60
2022-12-15T19:53:26.478Z,-0.60
2022-12-15T19:55:59.245Z,-0.50
2022-12-15T19:58:32.860Z,-0.50
2022-12-15T20:01:05.306Z,-0.40
2022-12-15T20:03:34.943Z,-0.40
2022-12-15T20:06:05.210Z,-0.30
2022-12-15T20:08:36.757Z,-0.30
2022-12-15T20:11:06.682Z,-0.30
2022-12-15T20:13:35.811Z,-0.30
2022-12-15T20:16:05.475Z,-0.30
2022-12-15T20:18:34.408Z,-0.30
2022-12-15T20:21:03.435Z,-0.20
2022-12-15T20:23:32.354Z,-0.30
2022-12-15T20:26:01.491Z,-0.20
2022-12-15T20:28:31.354Z,-0.20
2022-12-15T20:30:59.859Z,-0.20
2022-12-15T20:33:28.518Z,-0.20
2022-12-15T20:35:57.259Z,-0.20
2022-12-15T20:38:29.623Z,-0.20
2022-12-15T20:40:58.668Z,-0.20
2022-12-15T20:43:31.068Z,-0.20
2022-12-15T20:46:06.656Z,-0.20
2022-12-15T20:48:36.907Z,-0.10
2022-12-15T20:51:09.548Z,-0.20
2022-12-15T20:53:39.250Z,-0.20
2022-12-15T20:56:08.254Z,-0.20
2022-12-15T20:58:39.556Z,-0.20
2022-12-15T21:01:19.405Z,-0.20
2022-12-15T21:03:48.541Z,-0.20
2022-12-15T21:06:16.881Z,-0.10
2022-12-15T21:08:45.623Z,-0.10
2022-12-15T21:11:18.405Z,-0.20
2022-12-15T21:13:48.248Z,-0.10
2022-12-15T21:16:19.911Z,-0.10
2022-12-15T21:19:19.846Z,-0.10
2022-12-15T21:21:39.039Z,-0.20
2022-12-15T21:24:15.539Z,-0.10
2022-12-15T21:26:44.242Z,-0.20
2022-12-15T21:29:14.854Z,-0.20
2022-12-15T21:31:44.810Z,-0.20
2022-12-15T21:34:13.657Z,-0.20
2022-12-15T21:36:43.972Z,-0.10
2022-12-15T21:39:17.523Z,-0.20
2022-12-15T21:41:45.797Z,-0.20
2022-12-15T21:44:14.800Z,-0.20
2022-12-15T21:46:44.424Z,-0.10
2022-12-15T21:49:14.643Z,-0.10
2022-12-15T21:51:44.730Z,-0.10
2022-12-15T21:54:19.493Z,-0.10
2022-12-15T21:56:49.499Z,-0.10
2022-12-15T21:59:23.724Z,-0.10
2022-12-15T22:01:55.279Z,-0.10
2022-12-15T22:04:26.586Z,-0.10
2022-12-15T22:06:54.969Z,-0.10
2022-12-15T22:09:23.240Z,-0.10
2022-12-15T22:11:53.986Z,-0.10
2022-12-15T22:14:26.372Z,-0.10
2022-12-15T22:16:56.326Z,-0.10
2022-12-15T22:19:25.014Z,-0.20
2022-12-15T22:21:53.537Z,-0.20
2022-12-15T22:24:22.117Z,-0.20
2022-12-15T22:26:50.435Z,-0.20
2022-12-15T22:29:21.458Z,-0.20
2022-12-15T22:31:50.655Z,-0.30
2022-12-15T22:34:24.266Z,-0.30
2022-12-15T22:36:53.079Z,-0.30
2022-12-15T22:39:23.160Z,-0.30
2022-12-15T22:41:53.578Z,-0.30
2022-12-15T22:44:24.854Z,-0.30
2022-12-15T22:46:55.178Z,-0.30
2022-12-15T22:49:30.063Z,-0.30
2022-12-15T22:51:58.555Z,-0.30
2022-12-15T22:54:28.798Z,-0.20
2022-12-15T22:57:01.336Z,-0.20
2022-12-15T22:59:34.625Z,-0.30
2022-12-15T23:02:03.615Z,-0.20
2022-12-15T23:04:33.964Z,-0.20
2022-12-15T23:07:04.542Z,-0.20
2022-12-15T23:09:32.921Z,-0.20
2022-12-15T23:12:00.146Z,-0.20
2022-12-15T23:14:42.545Z,-0.20
2022-12-15T23:17:11.254Z,-0.20
2022-12-15T23:19:44.565Z,-0.20
2022-12-15T23:22:12.993Z,-0.20
2022-12-15T23:24:41.759Z,-0.20
2022-12-15T23:27:12.253Z,-0.20
2022-12-15T23:29:42.642Z,-0.20
2022-12-15T23:32:12.842Z,-0.20
2022-12-15T23:34:43.190Z,-0.20
2022-12-15T23:37:11.897Z,-0.10
2022-12-15T23:39:40.398Z,-0.10
2022-12-15T23:42:08.670Z,-0.10
2022-12-15T23:44:37.396Z,-0.10
2022-12-15T23:47:06.117Z,-0.10
2022-12-15T23:49:34.657Z,-0.10
2022-12-15T23:52:04.789Z,-0.10
2022-12-15T23:54:33.097Z,-0.10
2022-12-15T23:57:02.154Z,-0.10
2022-12-15T23:59:30.746Z,-0.10
